METAR Data
IDs: Format: Raw Decoded Include TAF

Data at: 1256 UTC 17 Sep 2019

NZCH 171230Z AUTO 02005KT 9999 NCD 05/03 Q1025 NOSIG
NZCH 171200Z AUTO 04006KT 9999 NCD 05/02 Q1025 NOSIG
NZCH 171130Z AUTO 03004KT 9999 FEW050/// 06/03 Q1024 NOSIG
NZCH 171100Z AUTO 02003KT 9999 -RA SCT046/// BKN055/// 07/04 Q1024 NOSIG
NZCH 171030Z AUTO 34002KT 9999 -RA BKN055/// BKN070/// 08/05 Q1024 NOSIG
NZCH 171000Z AUTO 15003KT 9999 -RA FEW039/// BKN060/// BKN085/// 09/05 Q1023 NOSIG

TAF NZCH 171101Z 1712/1812 VRB02KT 9999 FEW040
  BECMG 1800/1802 06010KT
  BECMG 1806/1808 29005KT